createdAt,value
2023-02-23T00:02:08.521Z,79.03
2023-02-23T00:07:11.302Z,78.92
2023-02-23T00:12:16.904Z,78.96
2023-02-23T00:17:19.891Z,78.76
2023-02-23T00:22:28.093Z,78.68
2023-02-23T00:27:30.813Z,78.75
2023-02-23T00:32:35.096Z,79.02
2023-02-23T00:37:38.297Z,79.01
2023-02-23T00:42:41.220Z,78.95
2023-02-23T00:47:44.971Z,78.85
2023-02-23T00:52:47.614Z,78.85
2023-02-23T00:57:50.159Z,79.10
2023-02-23T01:02:52.738Z,78.90
2023-02-23T01:07:56.515Z,78.63
2023-02-23T01:12:59.579Z,78.72
2023-02-23T01:18:02.481Z,78.72
2023-02-23T01:23:07.421Z,78.80
2023-02-23T01:28:11.857Z,78.53
2023-02-23T01:33:14.450Z,78.35
2023-02-23T01:38:17.028Z,78.37
2023-02-23T01:43:25.964Z,78.58
2023-02-23T01:48:35.979Z,78.80
2023-02-23T01:54:04.600Z,78.56
2023-02-23T01:59:08.247Z,78.35
2023-02-23T02:04:16.548Z,78.14
2023-02-23T02:09:25.575Z,78.10
2023-02-23T02:14:31.554Z,78.07
2023-02-23T02:19:55.728Z,77.95
2023-02-23T02:25:12.826Z,77.76
2023-02-23T02:30:48.109Z,77.62
2023-02-23T02:36:05.680Z,77.61
2023-02-23T02:41:08.260Z,77.44
2023-02-23T02:46:22.954Z,77.47
2023-02-23T02:51:36.748Z,77.60
2023-02-23T02:56:43.702Z,77.47
2023-02-23T03:02:02.456Z,77.23
2023-02-23T03:07:31.036Z,77.08
2023-02-23T03:13:01.642Z,77.12
2023-02-23T03:18:44.501Z,77.25
2023-02-23T03:24:21.899Z,77.35
2023-02-23T03:30:02.354Z,77.36
2023-02-23T03:35:33.954Z,77.59
2023-02-23T03:40:58.506Z,77.57
2023-02-23T03:46:19.043Z,77.56
2023-02-23T03:51:40.464Z,77.64
2023-02-23T03:57:01.526Z,77.66
2023-02-23T04:02:21.700Z,77.45
2023-02-23T04:07:40.920Z,77.38
2023-02-23T04:13:17.404Z,77.40
2023-02-23T04:18:32.946Z,77.49
2023-02-23T04:23:40.982Z,77.63
2023-02-23T04:28:43.593Z,77.74
2023-02-23T04:33:47.558Z,77.78
2023-02-23T04:38:50.155Z,77.90
2023-02-23T04:43:52.726Z,77.82
2023-02-23T04:48:55.359Z,77.75
2023-02-23T04:53:58.595Z,77.35
2023-02-23T04:59:01.503Z,76.95
2023-02-23T05:04:04.300Z,76.49
2023-02-23T05:09:08.242Z,75.97
2023-02-23T05:14:12.337Z,75.94
2023-02-23T05:19:15.205Z,75.85
2023-02-23T05:24:18.983Z,75.82
2023-02-23T05:29:21.599Z,75.71
2023-02-23T05:34:25.180Z,75.73
2023-02-23T05:39:27.789Z,75.28
2023-02-23T05:44:30.408Z,75.20
2023-02-23T05:49:33.112Z,75.12
2023-02-23T05:54:36.014Z,75.03
2023-02-23T05:59:38.615Z,75.01
2023-02-23T06:04:41.900Z,74.88
2023-02-23T06:09:44.750Z,74.88
2023-02-23T06:14:48.155Z,74.94
2023-02-23T06:19:50.984Z,74.66
2023-02-23T06:24:54.970Z,74.38
2023-02-23T06:29:57.569Z,74.02
2023-02-23T06:35:00.968Z,73.70
2023-02-23T06:40:04.459Z,73.37
2023-02-23T06:45:08.197Z,73.20
2023-02-23T06:50:11.382Z,72.66
2023-02-23T06:55:14.529Z,72.24
2023-02-23T07:00:19.104Z,71.63
2023-02-23T07:05:21.704Z,70.83
2023-02-23T07:10:24.327Z,71.02
2023-02-23T07:15:27.115Z,70.35
2023-02-23T07:20:31.326Z,69.97
2023-02-23T07:25:34.353Z,69.66
2023-02-23T07:30:37.168Z,69.48
2023-02-23T07:35:39.851Z,69.00
2023-02-23T07:40:42.541Z,68.78
2023-02-23T07:45:46.711Z,68.75
2023-02-23T07:50:49.779Z,68.25
2023-02-23T07:55:59.494Z,68.60
2023-02-23T08:01:02.382Z,68.00
2023-02-23T08:06:06.342Z,67.76
2023-02-23T08:11:08.946Z,67.38
2023-02-23T08:16:12.436Z,67.26
2023-02-23T08:21:14.973Z,66.59
2023-02-23T08:26:17.893Z,66.13
2023-02-23T08:31:24.043Z,66.10
2023-02-23T08:36:27.224Z,66.05
2023-02-23T08:41:29.963Z,66.35
2023-02-23T08:46:32.834Z,66.32
2023-02-23T08:51:35.511Z,66.15
2023-02-23T08:56:38.744Z,66.14
2023-02-23T09:01:43.044Z,66.33
2023-02-23T09:06:47.409Z,65.60
2023-02-23T09:11:50.012Z,65.71
2023-02-23T09:16:52.765Z,65.21
2023-02-23T09:21:55.347Z,65.33
2023-02-23T09:26:58.191Z,65.52
2023-02-23T09:32:00.824Z,65.53
2023-02-23T09:37:04.406Z,64.72
2023-02-23T09:42:10.399Z,64.66
2023-02-23T09:47:19.223Z,64.77
2023-02-23T09:52:26.902Z,64.33
2023-02-23T09:57:38.339Z,64.17
2023-02-23T10:03:11.883Z,63.65
2023-02-23T10:08:34.219Z,63.72
2023-02-23T10:14:00.456Z,64.05
2023-02-23T10:19:19.358Z,63.72
2023-02-23T10:24:30.013Z,63.56
2023-02-23T10:29:41.416Z,63.17
2023-02-23T10:34:45.953Z,63.37
2023-02-23T10:39:51.733Z,62.88
2023-02-23T10:44:56.101Z,63.14
2023-02-23T10:50:00.441Z,63.58
2023-02-23T10:55:06.643Z,63.54
2023-02-23T11:00:27.906Z,63.43
2023-02-23T11:05:33.174Z,63.45
2023-02-23T11:10:36.206Z,63.52
2023-02-23T11:15:50.581Z,63.63
2023-02-23T11:20:54.862Z,63.74
2023-02-23T11:26:03.852Z,63.71
2023-02-23T11:31:28.328Z,63.64
2023-02-23T11:36:35.567Z,63.08
2023-02-23T11:41:38.260Z,62.82
2023-02-23T11:46:46.001Z,62.15
2023-02-23T11:51:51.653Z,61.91
2023-02-23T11:56:57.974Z,61.94
2023-02-23T12:02:44.159Z,61.57
2023-02-23T12:08:08.171Z,61.42
2023-02-23T12:13:30.152Z,60.94
2023-02-23T12:19:03.529Z,61.03
2023-02-23T12:24:28.180Z,60.91
2023-02-23T12:29:40.278Z,59.98
2023-02-23T12:34:55.170Z,59.80
2023-02-23T12:40:10.187Z,59.52
2023-02-23T12:45:23.622Z,59.68
2023-02-23T12:50:31.471Z,59.58
2023-02-23T12:55:47.047Z,59.62
2023-02-23T13:01:22.176Z,60.27
2023-02-23T13:06:43.301Z,60.86
2023-02-23T13:12:13.674Z,61.68
2023-02-23T13:17:19.548Z,62.17
2023-02-23T13:22:37.937Z,61.96
2023-02-23T13:27:45.966Z,61.81
2023-02-23T13:32:49.314Z,61.94
2023-02-23T13:37:59.515Z,61.58
2023-02-23T13:43:03.277Z,61.76
2023-02-23T13:48:55.996Z,62.18
2023-02-23T13:54:34.431Z,62.77
2023-02-23T13:59:48.232Z,63.05
2023-02-23T14:04:51.090Z,63.15
2023-02-23T14:09:56.831Z,63.33
2023-02-23T14:15:25.326Z,63.40
2023-02-23T14:20:46.526Z,63.52
2023-02-23T14:25:53.645Z,63.87
2023-02-23T14:31:20.476Z,63.93
2023-02-23T14:36:26.604Z,63.60
2023-02-23T14:41:49.984Z,63.47
2023-02-23T14:47:13.555Z,63.89
2023-02-23T14:52:25.130Z,64.09
2023-02-23T14:57:27.996Z,64.59
2023-02-23T15:02:31.071Z,65.21
2023-02-23T15:07:39.797Z,65.42
2023-02-23T15:12:42.465Z,65.82
2023-02-23T15:17:47.777Z,66.40
2023-02-23T15:22:57.299Z,66.96
2023-02-23T15:28:10.042Z,67.50
2023-02-23T15:33:14.735Z,68.01
2023-02-23T15:38:42.912Z,68.43
2023-02-23T15:43:46.433Z,68.98
2023-02-23T15:48:50.890Z,69.50
2023-02-23T15:53:54.214Z,70.13
2023-02-23T15:59:03.118Z,70.77
2023-02-23T16:04:13.796Z,71.27
2023-02-23T16:09:24.198Z,71.91
2023-02-23T16:14:32.848Z,72.69
2023-02-23T16:19:40.732Z,73.20
2023-02-23T16:24:43.735Z,73.69
2023-02-23T16:29:46.482Z,73.99
2023-02-23T16:35:00.595Z,74.74
2023-02-23T16:40:09.372Z,75.33
2023-02-23T16:45:17.100Z,75.47
2023-02-23T16:50:24.153Z,75.51
2023-02-23T16:55:29.138Z,76.09
2023-02-23T17:00:40.803Z,76.24
2023-02-23T17:05:50.393Z,76.30
2023-02-23T17:11:03.587Z,76.35
2023-02-23T17:16:13.857Z,76.65
2023-02-23T17:21:24.965Z,76.57
2023-02-23T17:26:27.605Z,76.64
2023-02-23T17:31:32.057Z,76.75
2023-02-23T17:36:34.785Z,76.64
2023-02-23T17:41:37.391Z,76.43
2023-02-23T17:46:40.018Z,76.33
2023-02-23T17:51:42.792Z,76.37
2023-02-23T17:56:45.719Z,76.42
2023-02-23T18:01:49.602Z,76.50
2023-02-23T18:06:52.212Z,76.45
2023-02-23T18:11:56.343Z,76.52
2023-02-23T18:16:59.027Z,76.49
2023-02-23T18:22:01.739Z,76.59
2023-02-23T18:27:05.246Z,76.55
2023-02-23T18:32:08.625Z,76.57
2023-02-23T18:37:11.511Z,76.61
2023-02-23T18:42:14.134Z,76.42
2023-02-23T18:47:17.219Z,76.39
2023-02-23T18:52:19.796Z,76.24
2023-02-23T18:57:23.257Z,76.04
2023-02-23T19:02:27.217Z,75.76
2023-02-23T19:07:30.767Z,75.38
2023-02-23T19:12:33.403Z,75.04
2023-02-23T19:17:36.775Z,74.69
2023-02-23T19:22:40.913Z,74.49
2023-02-23T19:27:43.564Z,74.61
2023-02-23T19:32:46.520Z,74.69
2023-02-23T19:37:52.220Z,74.90
2023-02-23T19:42:55.014Z,75.18
2023-02-23T19:47:57.811Z,75.47
2023-02-23T19:53:00.385Z,75.75
2023-02-23T19:58:03.115Z,76.12
2023-02-23T20:03:08.788Z,76.31
2023-02-23T20:08:12.260Z,76.57
2023-02-23T20:13:15.586Z,77.02
2023-02-23T20:18:20.983Z,77.05
2023-02-23T20:23:23.634Z,77.21
2023-02-23T20:28:26.617Z,77.22
2023-02-23T20:33:31.525Z,77.16
2023-02-23T20:38:34.358Z,77.06
2023-02-23T20:43:38.574Z,77.07
2023-02-23T20:48:41.654Z,77.23
2023-02-23T20:53:46.581Z,77.42
2023-02-23T20:58:49.644Z,77.76
2023-02-23T21:03:54.211Z,78.10
2023-02-23T21:09:02.604Z,78.61
2023-02-23T21:14:06.094Z,78.84
2023-02-23T21:19:10.723Z,79.08
2023-02-23T21:24:17.673Z,79.27
2023-02-23T21:29:23.899Z,79.44
2023-02-23T21:34:26.559Z,79.44
2023-02-23T21:39:29.777Z,79.60
2023-02-23T21:44:32.973Z,79.85
2023-02-23T21:49:36.298Z,79.86
2023-02-23T21:54:38.905Z,80.04
2023-02-23T21:59:42.232Z,80.18
2023-02-23T22:04:49.688Z,80.36
2023-02-23T22:09:52.232Z,80.53
2023-02-23T22:14:55.290Z,80.86
2023-02-23T22:19:57.848Z,81.04
2023-02-23T22:25:00.511Z,81.31
2023-02-23T22:30:05.092Z,81.58
2023-02-23T22:35:08.199Z,81.86
2023-02-23T22:40:13.242Z,82.61
2023-02-23T22:45:16.729Z,83.03
2023-02-23T22:50:19.549Z,83.77
2023-02-23T22:55:22.121Z,84.70
2023-02-23T23:00:25.049Z,85.84
2023-02-23T23:05:27.586Z,86.39
2023-02-23T23:10:30.171Z,86.85
2023-02-23T23:15:32.720Z,87.32
2023-02-23T23:20:35.261Z,88.24
2023-02-23T23:25:41.709Z,89.08
2023-02-23T23:30:45.864Z,89.56
2023-02-23T23:35:49.163Z,89.97
2023-02-23T23:40:53.608Z,90.51
2023-02-23T23:45:56.820Z,90.97
2023-02-23T23:51:06.502Z,91.34
2023-02-23T23:56:10.715Z,91.64
